sensor_id;sensor_type;location;lat;lon;timestamp;P1;durP1;ratioP1;P2;durP2;ratioP2
793;SDS011;380;48.738;9.214;2023-04-16T00:01:06;7.97;;;6.65;;
793;SDS011;380;48.738;9.214;2023-04-16T00:03:32;11.43;;;7.32;;
793;SDS011;380;48.738;9.214;2023-04-16T00:05:58;8.18;;;5.50;;
793;SDS011;380;48.738;9.214;2023-04-16T00:08:24;8.90;;;7.35;;
793;SDS011;380;48.738;9.214;2023-04-16T00:10:51;7.57;;;6.80;;
793;SDS011;380;48.738;9.214;2023-04-16T00:13:17;7.88;;;6.07;;
793;SDS011;380;48.738;9.214;2023-04-16T00:15:43;7.15;;;6.45;;
793;SDS011;380;48.738;9.214;2023-04-16T00:18:09;9.18;;;5.75;;
793;SDS011;380;48.738;9.214;2023-04-16T00:20:35;8.18;;;6.20;;
793;SDS011;380;48.738;9.214;2023-04-16T00:23:01;8.07;;;6.78;;
793;SDS011;380;48.738;9.214;2023-04-16T00:25:27;7.88;;;6.53;;
793;SDS011;380;48.738;9.214;2023-04-16T00:27:53;8.38;;;6.72;;
793;SDS011;380;48.738;9.214;2023-04-16T00:30:19;10.02;;;6.80;;
793;SDS011;380;48.738;9.214;2023-04-16T00:32:45;7.72;;;6.90;;
793;SDS011;380;48.738;9.214;2023-04-16T00:35:11;11.25;;;6.28;;
793;SDS011;380;48.738;9.214;2023-04-16T00:37:36;7.78;;;6.15;;
793;SDS011;380;48.738;9.214;2023-04-16T00:40:02;8.68;;;6.78;;
793;SDS011;380;48.738;9.214;2023-04-16T00:42:29;8.75;;;7.13;;
793;SDS011;380;48.738;9.214;2023-04-16T00:44:55;9.50;;;5.65;;
793;SDS011;380;48.738;9.214;2023-04-16T00:47:21;8.45;;;6.97;;
793;SDS011;380;48.738;9.214;2023-04-16T00:49:47;9.35;;;7.93;;
793;SDS011;380;48.738;9.214;2023-04-16T00:52:13;7.75;;;6.00;;
793;SDS011;380;48.738;9.214;2023-04-16T00:54:39;7.95;;;6.43;;
793;SDS011;380;48.738;9.214;2023-04-16T00:57:05;7.13;;;6.15;;
793;SDS011;380;48.738;9.214;2023-04-16T00:59:31;7.68;;;6.55;;
793;SDS011;380;48.738;9.214;2023-04-16T01:01:57;8.55;;;6.95;;
793;SDS011;380;48.738;9.214;2023-04-16T01:04:23;8.48;;;7.38;;
793;SDS011;380;48.738;9.214;2023-04-16T01:06:50;9.80;;;6.30;;
793;SDS011;380;48.738;9.214;2023-04-16T01:09:16;7.40;;;6.43;;
793;SDS011;380;48.738;9.214;2023-04-16T01:11:42;8.65;;;7.50;;
793;SDS011;380;48.738;9.214;2023-04-16T01:14:07;9.30;;;6.53;;
793;SDS011;380;48.738;9.214;2023-04-16T01:16:33;10.07;;;7.07;;
793;SDS011;380;48.738;9.214;2023-04-16T01:18:59;9.18;;;6.57;;
793;SDS011;380;48.738;9.214;2023-04-16T01:21:25;8.30;;;6.60;;
793;SDS011;380;48.738;9.214;2023-04-16T01:23:52;7.80;;;7.00;;
793;SDS011;380;48.738;9.214;2023-04-16T01:26:17;8.82;;;7.55;;
793;SDS011;380;48.738;9.214;2023-04-16T01:28:43;7.60;;;6.40;;
793;SDS011;380;48.738;9.214;2023-04-16T01:31:09;9.23;;;6.97;;
793;SDS011;380;48.738;9.214;2023-04-16T01:33:35;8.18;;;6.40;;
793;SDS011;380;48.738;9.214;2023-04-16T01:36:01;7.47;;;6.03;;
793;SDS011;380;48.738;9.214;2023-04-16T01:38:27;8.13;;;6.60;;
793;SDS011;380;48.738;9.214;2023-04-16T01:40:56;6.95;;;5.13;;
793;SDS011;380;48.738;9.214;2023-04-16T01:43:23;6.68;;;5.93;;
793;SDS011;380;48.738;9.214;2023-04-16T01:45:49;7.45;;;5.88;;
793;SDS011;380;48.738;9.214;2023-04-16T01:48:16;7.22;;;6.10;;
793;SDS011;380;48.738;9.214;2023-04-16T01:50:42;6.43;;;5.32;;
793;SDS011;380;48.738;9.214;2023-04-16T01:53:08;6.68;;;4.85;;
793;SDS011;380;48.738;9.214;2023-04-16T01:55:34;7.15;;;6.43;;
793;SDS011;380;48.738;9.214;2023-04-16T01:58:00;8.20;;;6.22;;
793;SDS011;380;48.738;9.214;2023-04-16T02:00:26;7.20;;;5.97;;
793;SDS011;380;48.738;9.214;2023-04-16T02:02:52;6.03;;;5.05;;
793;SDS011;380;48.738;9.214;2023-04-16T02:05:18;6.32;;;4.63;;
793;SDS011;380;48.738;9.214;2023-04-16T02:07:44;6.75;;;5.20;;
793;SDS011;380;48.738;9.214;2023-04-16T02:10:10;6.60;;;4.68;;
793;SDS011;380;48.738;9.214;2023-04-16T02:12:36;6.20;;;4.45;;
793;SDS011;380;48.738;9.214;2023-04-16T02:15:03;6.75;;;4.95;;
793;SDS011;380;48.738;9.214;2023-04-16T02:17:29;6.20;;;4.20;;
793;SDS011;380;48.738;9.214;2023-04-16T02:19:55;6.80;;;5.30;;
793;SDS011;380;48.738;9.214;2023-04-16T02:22:21;8.23;;;5.70;;
793;SDS011;380;48.738;9.214;2023-04-16T02:24:47;6.97;;;4.82;;
793;SDS011;380;48.738;9.214;2023-04-16T02:27:14;6.53;;;4.65;;
793;SDS011;380;48.738;9.214;2023-04-16T02:29:40;6.05;;;5.28;;
793;SDS011;380;48.738;9.214;2023-04-16T02:32:06;6.55;;;4.50;;
793;SDS011;380;48.738;9.214;2023-04-16T02:34:32;7.13;;;5.10;;
793;SDS011;380;48.738;9.214;2023-04-16T02:36:59;8.30;;;4.95;;
793;SDS011;380;48.738;9.214;2023-04-16T02:39:25;6.35;;;4.72;;
793;SDS011;380;48.738;9.214;2023-04-16T02:41:51;5.25;;;3.95;;
793;SDS011;380;48.738;9.214;2023-04-16T02:44:17;7.20;;;6.03;;
793;SDS011;380;48.738;9.214;2023-04-16T02:46:43;5.78;;;4.80;;
793;SDS011;380;48.738;9.214;2023-04-16T02:49:09;8.23;;;5.30;;
793;SDS011;380;48.738;9.214;2023-04-16T02:51:35;6.57;;;5.63;;
793;SDS011;380;48.738;9.214;2023-04-16T02:54:01;5.45;;;4.47;;
793;SDS011;380;48.738;9.214;2023-04-16T02:56:27;6.50;;;5.20;;
793;SDS011;380;48.738;9.214;2023-04-16T02:58:53;6.55;;;5.10;;
793;SDS011;380;48.738;9.214;2023-04-16T03:01:19;7.60;;;5.55;;
793;SDS011;380;48.738;9.214;2023-04-16T03:03:45;6.35;;;4.85;;
793;SDS011;380;48.738;9.214;2023-04-16T03:06:11;8.65;;;5.80;;
793;SDS011;380;48.738;9.214;2023-04-16T03:08:37;7.13;;;5.25;;
793;SDS011;380;48.738;9.214;2023-04-16T03:11:03;6.38;;;4.70;;
793;SDS011;380;48.738;9.214;2023-04-16T03:13:29;10.25;;;5.85;;
793;SDS011;380;48.738;9.214;2023-04-16T03:15:55;7.72;;;5.38;;
793;SDS011;380;48.738;9.214;2023-04-16T03:18:21;8.45;;;5.60;;
793;SDS011;380;48.738;9.214;2023-04-16T03:20:50;6.53;;;5.65;;
793;SDS011;380;48.738;9.214;2023-04-16T03:23:16;6.57;;;5.30;;
793;SDS011;380;48.738;9.214;2023-04-16T03:25:42;6.85;;;5.57;;
793;SDS011;380;48.738;9.214;2023-04-16T03:28:10;7.28;;;5.55;;
793;SDS011;380;48.738;9.214;2023-04-16T03:30:36;7.05;;;5.25;;
793;SDS011;380;48.738;9.214;2023-04-16T03:33:02;7.25;;;4.85;;
793;SDS011;380;48.738;9.214;2023-04-16T03:35:28;7.28;;;5.88;;
793;SDS011;380;48.738;9.214;2023-04-16T03:37:54;8.45;;;5.43;;
793;SDS011;380;48.738;9.214;2023-04-16T03:40:20;10.23;;;6.32;;
793;SDS011;380;48.738;9.214;2023-04-16T03:42:46;7.43;;;5.63;;
793;SDS011;380;48.738;9.214;2023-04-16T03:45:12;7.68;;;5.38;;
793;SDS011;380;48.738;9.214;2023-04-16T03:47:39;10.07;;;6.45;;
793;SDS011;380;48.738;9.214;2023-04-16T03:50:05;8.32;;;6.05;;
793;SDS011;380;48.738;9.214;2023-04-16T03:52:31;8.05;;;6.13;;
793;SDS011;380;48.738;9.214;2023-04-16T03:54:56;8.32;;;6.45;;
793;SDS011;380;48.738;9.214;2023-04-16T03:57:22;6.97;;;5.78;;
793;SDS011;380;48.738;9.214;2023-04-16T03:59:48;7.85;;;6.28;;
793;SDS011;380;48.738;9.214;2023-04-16T04:02:14;7.93;;;6.30;;
793;SDS011;380;48.738;9.214;2023-04-16T04:04:40;9.38;;;6.18;;
793;SDS011;380;48.738;9.214;2023-04-16T04:07:06;8.45;;;5.93;;
793;SDS011;380;48.738;9.214;2023-04-16T04:09:32;8.60;;;5.55;;
793;SDS011;380;48.738;9.214;2023-04-16T04:11:58;8.15;;;6.68;;
793;SDS011;380;48.738;9.214;2023-04-16T04:14:24;8.98;;;6.18;;
793;SDS011;380;48.738;9.214;2023-04-16T04:16:50;10.60;;;7.45;;
793;SDS011;380;48.738;9.214;2023-04-16T04:19:16;8.68;;;6.45;;
793;SDS011;380;48.738;9.214;2023-04-16T04:21:42;8.45;;;5.70;;
793;SDS011;380;48.738;9.214;2023-04-16T04:24:08;7.30;;;5.90;;
793;SDS011;380;48.738;9.214;2023-04-16T04:26:34;8.88;;;5.50;;
793;SDS011;380;48.738;9.214;2023-04-16T04:29:00;8.75;;;6.28;;
793;SDS011;380;48.738;9.214;2023-04-16T04:31:26;9.88;;;7.13;;
793;SDS011;380;48.738;9.214;2023-04-16T04:33:52;8.50;;;5.75;;
793;SDS011;380;48.738;9.214;2023-04-16T04:36:18;9.07;;;6.60;;
793;SDS011;380;48.738;9.214;2023-04-16T04:38:44;6.85;;;5.28;;
793;SDS011;380;48.738;9.214;2023-04-16T04:41:10;9.15;;;6.03;;
793;SDS011;380;48.738;9.214;2023-04-16T04:43:36;8.15;;;5.65;;
793;SDS011;380;48.738;9.214;2023-04-16T04:46:02;9.70;;;6.28;;
793;SDS011;380;48.738;9.214;2023-04-16T04:48:28;5.18;;;4.13;;
793;SDS011;380;48.738;9.214;2023-04-16T04:50:54;8.60;;;5.22;;
793;SDS011;380;48.738;9.214;2023-04-16T04:53:20;5.85;;;4.22;;
793;SDS011;380;48.738;9.214;2023-04-16T04:55:46;7.53;;;5.57;;
793;SDS011;380;48.738;9.214;2023-04-16T04:58:12;8.52;;;5.85;;
793;SDS011;380;48.738;9.214;2023-04-16T05:00:38;9.20;;;5.40;;
793;SDS011;380;48.738;9.214;2023-04-16T05:03:05;6.28;;;5.18;;
793;SDS011;380;48.738;9.214;2023-04-16T05:05:31;9.38;;;5.10;;
793;SDS011;380;48.738;9.214;2023-04-16T05:07:57;9.40;;;6.15;;
793;SDS011;380;48.738;9.214;2023-04-16T05:10:23;8.30;;;6.00;;
793;SDS011;380;48.738;9.214;2023-04-16T05:12:49;9.23;;;6.03;;
793;SDS011;380;48.738;9.214;2023-04-16T05:15:15;10.55;;;6.65;;
793;SDS011;380;48.738;9.214;2023-04-16T05:17:41;7.70;;;6.22;;
793;SDS011;380;48.738;9.214;2023-04-16T05:20:07;6.00;;;4.68;;
793;SDS011;380;48.738;9.214;2023-04-16T05:22:34;7.55;;;5.38;;
793;SDS011;380;48.738;9.214;2023-04-16T05:25:00;6.97;;;4.30;;
793;SDS011;380;48.738;9.214;2023-04-16T05:27:26;6.55;;;5.53;;
793;SDS011;380;48.738;9.214;2023-04-16T05:29:52;9.30;;;5.47;;
793;SDS011;380;48.738;9.214;2023-04-16T05:32:18;7.20;;;5.88;;
793;SDS011;380;48.738;9.214;2023-04-16T05:34:44;7.32;;;5.97;;
793;SDS011;380;48.738;9.214;2023-04-16T05:37:10;10.23;;;7.10;;
793;SDS011;380;48.738;9.214;2023-04-16T05:39:36;9.85;;;6.35;;
793;SDS011;380;48.738;9.214;2023-04-16T05:42:02;11.48;;;8.52;;
793;SDS011;380;48.738;9.214;2023-04-16T05:44:27;12.50;;;7.47;;
793;SDS011;380;48.738;9.214;2023-04-16T05:46:53;8.27;;;7.32;;
793;SDS011;380;48.738;9.214;2023-04-16T05:49:19;15.00;;;9.80;;
793;SDS011;380;48.738;9.214;2023-04-16T05:51:46;10.52;;;7.28;;
793;SDS011;380;48.738;9.214;2023-04-16T05:54:12;11.80;;;9.07;;
793;SDS011;380;48.738;9.214;2023-04-16T05:56:38;10.52;;;8.23;;
793;SDS011;380;48.738;9.214;2023-04-16T05:59:04;14.88;;;9.52;;
793;SDS011;380;48.738;9.214;2023-04-16T06:01:31;11.25;;;9.07;;
793;SDS011;380;48.738;9.214;2023-04-16T06:03:56;13.38;;;9.88;;
793;SDS011;380;48.738;9.214;2023-04-16T06:06:22;13.70;;;9.23;;
793;SDS011;380;48.738;9.214;2023-04-16T06:08:48;13.90;;;10.23;;
793;SDS011;380;48.738;9.214;2023-04-16T06:11:14;16.83;;;10.20;;
793;SDS011;380;48.738;9.214;2023-04-16T06:13:40;18.95;;;9.73;;
793;SDS011;380;48.738;9.214;2023-04-16T06:16:06;13.77;;;9.20;;
793;SDS011;380;48.738;9.214;2023-04-16T06:18:32;14.77;;;10.93;;
793;SDS011;380;48.738;9.214;2023-04-16T06:20:58;16.33;;;12.10;;
793;SDS011;380;48.738;9.214;2023-04-16T06:23:24;16.45;;;12.00;;
793;SDS011;380;48.738;9.214;2023-04-16T06:25:50;15.60;;;11.80;;
793;SDS011;380;48.738;9.214;2023-04-16T06:28:16;17.05;;;11.90;;
793;SDS011;380;48.738;9.214;2023-04-16T06:30:42;16.70;;;12.90;;
793;SDS011;380;48.738;9.214;2023-04-16T06:33:08;16.92;;;11.80;;
793;SDS011;380;48.738;9.214;2023-04-16T06:35:34;16.80;;;12.07;;
793;SDS011;380;48.738;9.214;2023-04-16T06:38:00;14.90;;;12.50;;
793;SDS011;380;48.738;9.214;2023-04-16T06:40:26;16.92;;;11.70;;
793;SDS011;380;48.738;9.214;2023-04-16T06:42:52;18.02;;;11.30;;
793;SDS011;380;48.738;9.214;2023-04-16T06:45:18;15.05;;;11.13;;
793;SDS011;380;48.738;9.214;2023-04-16T06:47:44;16.25;;;10.85;;
793;SDS011;380;48.738;9.214;2023-04-16T06:50:10;15.98;;;12.15;;
793;SDS011;380;48.738;9.214;2023-04-16T06:52:36;14.77;;;11.73;;
793;SDS011;380;48.738;9.214;2023-04-16T06:55:02;15.15;;;10.57;;
793;SDS011;380;48.738;9.214;2023-04-16T06:57:28;15.23;;;12.65;;
793;SDS011;380;48.738;9.214;2023-04-16T06:59:54;17.45;;;11.20;;
793;SDS011;380;48.738;9.214;2023-04-16T07:02:20;14.60;;;10.65;;
793;SDS011;380;48.738;9.214;2023-04-16T07:04:46;16.98;;;11.93;;
793;SDS011;380;48.738;9.214;2023-04-16T07:07:12;20.80;;;12.10;;
793;SDS011;380;48.738;9.214;2023-04-16T07:09:38;17.77;;;12.35;;
793;SDS011;380;48.738;9.214;2023-04-16T07:12:04;21.40;;;13.30;;
793;SDS011;380;48.738;9.214;2023-04-16T07:14:30;19.77;;;11.80;;
793;SDS011;380;48.738;9.214;2023-04-16T07:16:56;14.45;;;12.52;;
793;SDS011;380;48.738;9.214;2023-04-16T07:19:22;19.45;;;12.38;;
793;SDS011;380;48.738;9.214;2023-04-16T07:21:48;19.17;;;12.68;;
793;SDS011;380;48.738;9.214;2023-04-16T07:24:14;15.95;;;12.52;;
793;SDS011;380;48.738;9.214;2023-04-16T07:26:41;20.23;;;13.38;;
793;SDS011;380;48.738;9.214;2023-04-16T07:29:06;17.38;;;13.55;;
793;SDS011;380;48.738;9.214;2023-04-16T07:31:32;18.48;;;12.02;;
793;SDS011;380;48.738;9.214;2023-04-16T07:33:58;17.60;;;12.57;;
793;SDS011;380;48.738;9.214;2023-04-16T07:36:25;21.45;;;14.23;;
793;SDS011;380;48.738;9.214;2023-04-16T07:38:52;17.13;;;12.85;;
793;SDS011;380;48.738;9.214;2023-04-16T07:41:18;19.80;;;12.95;;
793;SDS011;380;48.738;9.214;2023-04-16T07:43:44;17.90;;;13.88;;
793;SDS011;380;48.738;9.214;2023-04-16T07:46:10;21.48;;;13.90;;
793;SDS011;380;48.738;9.214;2023-04-16T07:48:36;19.08;;;12.82;;
793;SDS011;380;48.738;9.214;2023-04-16T07:51:02;16.67;;;11.07;;
793;SDS011;380;48.738;9.214;2023-04-16T07:53:28;19.63;;;11.70;;
793;SDS011;380;48.738;9.214;2023-04-16T07:55:54;20.35;;;12.25;;
793;SDS011;380;48.738;9.214;2023-04-16T07:58:20;17.67;;;11.77;;
793;SDS011;380;48.738;9.214;2023-04-16T08:00:46;18.63;;;12.18;;
793;SDS011;380;48.738;9.214;2023-04-16T08:03:12;13.93;;;12.32;;
793;SDS011;380;48.738;9.214;2023-04-16T08:05:39;12.80;;;9.85;;
793;SDS011;380;48.738;9.214;2023-04-16T08:08:05;15.07;;;11.73;;
793;SDS011;380;48.738;9.214;2023-04-16T08:10:31;12.90;;;10.73;;
793;SDS011;380;48.738;9.214;2023-04-16T08:12:59;22.05;;;13.13;;
793;SDS011;380;48.738;9.214;2023-04-16T08:15:25;13.98;;;10.40;;
793;SDS011;380;48.738;9.214;2023-04-16T08:17:51;17.00;;;12.48;;
793;SDS011;380;48.738;9.214;2023-04-16T08:20:17;16.52;;;12.07;;
793;SDS011;380;48.738;9.214;2023-04-16T08:22:44;14.80;;;13.13;;
793;SDS011;380;48.738;9.214;2023-04-16T08:25:10;17.73;;;12.60;;
793;SDS011;380;48.738;9.214;2023-04-16T08:27:36;17.50;;;11.75;;
793;SDS011;380;48.738;9.214;2023-04-16T08:30:02;12.20;;;11.00;;
793;SDS011;380;48.738;9.214;2023-04-16T08:32:28;13.98;;;10.25;;
793;SDS011;380;48.738;9.214;2023-04-16T08:34:54;17.15;;;12.50;;
793;SDS011;380;48.738;9.214;2023-04-16T08:37:21;15.88;;;10.80;;
793;SDS011;380;48.738;9.214;2023-04-16T08:39:47;16.85;;;11.48;;
793;SDS011;380;48.738;9.214;2023-04-16T08:42:16;15.52;;;11.35;;
793;SDS011;380;48.738;9.214;2023-04-16T08:44:45;16.17;;;11.82;;
793;SDS011;380;48.738;9.214;2023-04-16T08:47:13;16.73;;;11.43;;
793;SDS011;380;48.738;9.214;2023-04-16T08:49:43;18.25;;;11.63;;
793;SDS011;380;48.738;9.214;2023-04-16T08:52:17;15.57;;;13.05;;
793;SDS011;380;48.738;9.214;2023-04-16T08:54:58;14.48;;;11.20;;
793;SDS011;380;48.738;9.214;2023-04-16T08:59:53;17.48;;;12.90;;
793;SDS011;380;48.738;9.214;2023-04-16T09:02:19;16.85;;;10.82;;
793;SDS011;380;48.738;9.214;2023-04-16T09:04:45;14.50;;;10.15;;
793;SDS011;380;48.738;9.214;2023-04-16T09:07:11;13.38;;;10.25;;
793;SDS011;380;48.738;9.214;2023-04-16T09:09:37;15.45;;;11.43;;
793;SDS011;380;48.738;9.214;2023-04-16T09:12:04;15.50;;;12.05;;
793;SDS011;380;48.738;9.214;2023-04-16T09:14:30;13.55;;;10.48;;
793;SDS011;380;48.738;9.214;2023-04-16T09:16:56;14.82;;;11.52;;
793;SDS011;380;48.738;9.214;2023-04-16T09:19:25;17.35;;;11.40;;
793;SDS011;380;48.738;9.214;2023-04-16T09:21:51;14.68;;;11.45;;
793;SDS011;380;48.738;9.214;2023-04-16T09:24:17;16.88;;;12.32;;
793;SDS011;380;48.738;9.214;2023-04-16T09:26:43;15.45;;;11.20;;
793;SDS011;380;48.738;9.214;2023-04-16T09:29:09;15.68;;;9.25;;
793;SDS011;380;48.738;9.214;2023-04-16T09:31:35;17.80;;;11.13;;
793;SDS011;380;48.738;9.214;2023-04-16T09:34:03;12.68;;;10.57;;
793;SDS011;380;48.738;9.214;2023-04-16T09:36:29;19.23;;;10.73;;
793;SDS011;380;48.738;9.214;2023-04-16T09:38:56;15.60;;;9.80;;
793;SDS011;380;48.738;9.214;2023-04-16T09:41:26;13.63;;;10.38;;
793;SDS011;380;48.738;9.214;2023-04-16T09:43:53;16.77;;;10.18;;
793;SDS011;380;48.738;9.214;2023-04-16T09:46:20;13.35;;;10.60;;
793;SDS011;380;48.738;9.214;2023-04-16T09:48:46;16.20;;;10.13;;
793;SDS011;380;48.738;9.214;2023-04-16T09:51:12;13.10;;;10.10;;
793;SDS011;380;48.738;9.214;2023-04-16T09:53:38;18.80;;;10.48;;
793;SDS011;380;48.738;9.214;2023-04-16T09:56:04;14.13;;;11.45;;
793;SDS011;380;48.738;9.214;2023-04-16T09:58:31;16.80;;;12.32;;
793;SDS011;380;48.738;9.214;2023-04-16T10:03:32;16.30;;;10.73;;
793;SDS011;380;48.738;9.214;2023-04-16T10:06:20;14.15;;;10.45;;
793;SDS011;380;48.738;9.214;2023-04-16T10:11:10;14.40;;;10.63;;
793;SDS011;380;48.738;9.214;2023-04-16T10:13:37;14.02;;;9.90;;
793;SDS011;380;48.738;9.214;2023-04-16T10:16:03;13.85;;;10.23;;
793;SDS011;380;48.738;9.214;2023-04-16T10:18:29;15.90;;;11.55;;
793;SDS011;380;48.738;9.214;2023-04-16T10:20:55;13.20;;;9.38;;
793;SDS011;380;48.738;9.214;2023-04-16T10:23:22;12.35;;;9.05;;
793;SDS011;380;48.738;9.214;2023-04-16T10:25:48;16.88;;;11.10;;
793;SDS011;380;48.738;9.214;2023-04-16T10:28:14;14.73;;;9.85;;
793;SDS011;380;48.738;9.214;2023-04-16T10:30:44;15.60;;;10.05;;
793;SDS011;380;48.738;9.214;2023-04-16T10:33:17;15.13;;;11.10;;
793;SDS011;380;48.738;9.214;2023-04-16T10:35:44;17.45;;;12.90;;
793;SDS011;380;48.738;9.214;2023-04-16T10:38:31;12.52;;;9.75;;
793;SDS011;380;48.738;9.214;2023-04-16T10:41:03;16.02;;;10.75;;
793;SDS011;380;48.738;9.214;2023-04-16T10:43:30;17.42;;;10.93;;
793;SDS011;380;48.738;9.214;2023-04-16T10:45:56;15.93;;;11.93;;
793;SDS011;380;48.738;9.214;2023-04-16T10:48:25;16.92;;;10.68;;
793;SDS011;380;48.738;9.214;2023-04-16T10:50:55;14.55;;;9.27;;
793;SDS011;380;48.738;9.214;2023-04-16T10:53:23;14.60;;;9.07;;
793;SDS011;380;48.738;9.214;2023-04-16T10:56:50;15.90;;;9.82;;
793;SDS011;380;48.738;9.214;2023-04-16T10:58:45;11.35;;;7.70;;
793;SDS011;380;48.738;9.214;2023-04-16T11:01:11;14.05;;;9.50;;
793;SDS011;380;48.738;9.214;2023-04-16T11:03:47;12.20;;;8.50;;
793;SDS011;380;48.738;9.214;2023-04-16T11:06:14;16.92;;;8.57;;
793;SDS011;380;48.738;9.214;2023-04-16T11:08:41;12.02;;;8.38;;
793;SDS011;380;48.738;9.214;2023-04-16T11:11:09;12.85;;;8.65;;
793;SDS011;380;48.738;9.214;2023-04-16T11:13:35;11.55;;;8.68;;
793;SDS011;380;48.738;9.214;2023-04-16T11:16:02;10.23;;;7.45;;
793;SDS011;380;48.738;9.214;2023-04-16T11:18:28;10.18;;;7.63;;
793;SDS011;380;48.738;9.214;2023-04-16T11:20:54;8.90;;;6.90;;
793;SDS011;380;48.738;9.214;2023-04-16T11:23:20;9.70;;;6.93;;
793;SDS011;380;48.738;9.214;2023-04-16T11:25:46;10.00;;;7.63;;
793;SDS011;380;48.738;9.214;2023-04-16T11:28:12;10.27;;;6.90;;
793;SDS011;380;48.738;9.214;2023-04-16T11:30:38;15.05;;;7.95;;
793;SDS011;380;48.738;9.214;2023-04-16T11:33:08;11.25;;;6.97;;
793;SDS011;380;48.738;9.214;2023-04-16T11:35:35;10.63;;;7.17;;
793;SDS011;380;48.738;9.214;2023-04-16T11:38:01;10.48;;;6.00;;
793;SDS011;380;48.738;9.214;2023-04-16T11:40:30;6.97;;;5.88;;
793;SDS011;380;48.738;9.214;2023-04-16T11:43:00;7.03;;;5.07;;
793;SDS011;380;48.738;9.214;2023-04-16T11:45:26;7.45;;;5.60;;
793;SDS011;380;48.738;9.214;2023-04-16T11:47:52;7.88;;;5.70;;
793;SDS011;380;48.738;9.214;2023-04-16T11:52:47;5.50;;;3.83;;
793;SDS011;380;48.738;9.214;2023-04-16T11:55:13;7.03;;;5.38;;
793;SDS011;380;48.738;9.214;2023-04-16T11:57:39;6.18;;;4.03;;
793;SDS011;380;48.738;9.214;2023-04-16T12:00:06;7.35;;;4.90;;
793;SDS011;380;48.738;9.214;2023-04-16T12:02:38;6.88;;;4.65;;
793;SDS011;380;48.738;9.214;2023-04-16T12:05:06;5.72;;;3.55;;
793;SDS011;380;48.738;9.214;2023-04-16T12:07:53;6.25;;;3.35;;
793;SDS011;380;48.738;9.214;2023-04-16T12:10:19;3.85;;;3.15;;
793;SDS011;380;48.738;9.214;2023-04-16T12:12:44;6.95;;;4.20;;
793;SDS011;380;48.738;9.214;2023-04-16T12:15:10;4.63;;;3.47;;
793;SDS011;380;48.738;9.214;2023-04-16T12:17:37;5.82;;;3.83;;
793;SDS011;380;48.738;9.214;2023-04-16T12:20:09;7.25;;;3.85;;
793;SDS011;380;48.738;9.214;2023-04-16T12:22:36;4.80;;;3.63;;
793;SDS011;380;48.738;9.214;2023-04-16T12:25:04;8.25;;;4.40;;
793;SDS011;380;48.738;9.214;2023-04-16T12:27:40;5.38;;;4.00;;
793;SDS011;380;48.738;9.214;2023-04-16T12:30:07;5.18;;;2.95;;
793;SDS011;380;48.738;9.214;2023-04-16T12:32:33;4.57;;;2.53;;
793;SDS011;380;48.738;9.214;2023-04-16T12:34:59;3.80;;;2.60;;
793;SDS011;380;48.738;9.214;2023-04-16T12:37:25;4.07;;;3.08;;
793;SDS011;380;48.738;9.214;2023-04-16T12:39:52;3.70;;;2.80;;
793;SDS011;380;48.738;9.214;2023-04-16T12:42:17;5.70;;;3.28;;
793;SDS011;380;48.738;9.214;2023-04-16T12:44:43;6.57;;;3.20;;
793;SDS011;380;48.738;9.214;2023-04-16T12:47:10;7.75;;;4.05;;
793;SDS011;380;48.738;9.214;2023-04-16T12:49:36;3.45;;;2.42;;
793;SDS011;380;48.738;9.214;2023-04-16T12:52:02;6.70;;;3.58;;
793;SDS011;380;48.738;9.214;2023-04-16T12:54:28;4.25;;;3.20;;
793;SDS011;380;48.738;9.214;2023-04-16T12:56:55;3.30;;;2.55;;
793;SDS011;380;48.738;9.214;2023-04-16T12:59:21;4.45;;;2.45;;
793;SDS011;380;48.738;9.214;2023-04-16T13:01:47;3.70;;;2.75;;
793;SDS011;380;48.738;9.214;2023-04-16T13:04:13;4.50;;;2.80;;
793;SDS011;380;48.738;9.214;2023-04-16T13:06:39;5.90;;;4.32;;
793;SDS011;380;48.738;9.214;2023-04-16T13:09:05;5.43;;;4.35;;
793;SDS011;380;48.738;9.214;2023-04-16T13:11:31;4.88;;;3.00;;
793;SDS011;380;48.738;9.214;2023-04-16T13:13:57;4.35;;;3.00;;
793;SDS011;380;48.738;9.214;2023-04-16T13:16:23;4.07;;;3.00;;
793;SDS011;380;48.738;9.214;2023-04-16T13:18:50;4.15;;;3.30;;
793;SDS011;380;48.738;9.214;2023-04-16T13:21:15;5.28;;;3.67;;
793;SDS011;380;48.738;9.214;2023-04-16T13:23:41;5.60;;;3.25;;
793;SDS011;380;48.738;9.214;2023-04-16T13:26:07;4.38;;;2.83;;
793;SDS011;380;48.738;9.214;2023-04-16T13:28:33;6.70;;;4.45;;
793;SDS011;380;48.738;9.214;2023-04-16T13:30:59;4.75;;;3.25;;
793;SDS011;380;48.738;9.214;2023-04-16T13:33:26;5.63;;;3.83;;
793;SDS011;380;48.738;9.214;2023-04-16T13:35:52;6.15;;;4.70;;
793;SDS011;380;48.738;9.214;2023-04-16T13:38:18;5.90;;;4.10;;
793;SDS011;380;48.738;9.214;2023-04-16T13:40:44;7.65;;;4.38;;
793;SDS011;380;48.738;9.214;2023-04-16T13:43:10;5.15;;;3.85;;
793;SDS011;380;48.738;9.214;2023-04-16T13:45:37;6.43;;;3.88;;
793;SDS011;380;48.738;9.214;2023-04-16T13:48:03;6.13;;;4.68;;
793;SDS011;380;48.738;9.214;2023-04-16T13:50:29;6.40;;;3.88;;
793;SDS011;380;48.738;9.214;2023-04-16T13:52:55;6.50;;;4.45;;
793;SDS011;380;48.738;9.214;2023-04-16T13:55:21;6.63;;;4.55;;
793;SDS011;380;48.738;9.214;2023-04-16T13:57:47;11.38;;;5.05;;
793;SDS011;380;48.738;9.214;2023-04-16T14:00:14;6.80;;;4.45;;
793;SDS011;380;48.738;9.214;2023-04-16T14:02:41;8.15;;;4.60;;
793;SDS011;380;48.738;9.214;2023-04-16T14:05:09;6.68;;;4.82;;
793;SDS011;380;48.738;9.214;2023-04-16T14:07:35;7.28;;;5.07;;
793;SDS011;380;48.738;9.214;2023-04-16T14:10:02;6.30;;;4.45;;
793;SDS011;380;48.738;9.214;2023-04-16T14:12:28;6.63;;;4.50;;
793;SDS011;380;48.738;9.214;2023-04-16T14:14:54;7.30;;;4.35;;
793;SDS011;380;48.738;9.214;2023-04-16T14:17:21;7.05;;;5.15;;
793;SDS011;380;48.738;9.214;2023-04-16T14:19:47;5.22;;;3.85;;
793;SDS011;380;48.738;9.214;2023-04-16T14:22:13;5.32;;;4.50;;
793;SDS011;380;48.738;9.214;2023-04-16T14:24:41;6.57;;;5.30;;
793;SDS011;380;48.738;9.214;2023-04-16T14:27:07;6.90;;;4.68;;
793;SDS011;380;48.738;9.214;2023-04-16T14:29:33;7.60;;;4.47;;
793;SDS011;380;48.738;9.214;2023-04-16T14:32:00;5.38;;;4.88;;
793;SDS011;380;48.738;9.214;2023-04-16T14:34:26;6.63;;;5.20;;
793;SDS011;380;48.738;9.214;2023-04-16T14:36:52;9.95;;;5.72;;
793;SDS011;380;48.738;9.214;2023-04-16T14:39:18;7.88;;;6.50;;
793;SDS011;380;48.738;9.214;2023-04-16T14:41:44;9.13;;;6.80;;
793;SDS011;380;48.738;9.214;2023-04-16T14:44:10;7.15;;;5.82;;
793;SDS011;380;48.738;9.214;2023-04-16T14:46:36;8.00;;;6.10;;
793;SDS011;380;48.738;9.214;2023-04-16T14:49:04;8.60;;;6.38;;
793;SDS011;380;48.738;9.214;2023-04-16T14:51:30;8.40;;;6.00;;
793;SDS011;380;48.738;9.214;2023-04-16T14:53:57;7.95;;;6.15;;
793;SDS011;380;48.738;9.214;2023-04-16T14:56:23;8.77;;;6.40;;
793;SDS011;380;48.738;9.214;2023-04-16T14:58:49;9.80;;;7.38;;
793;SDS011;380;48.738;9.214;2023-04-16T15:01:15;9.50;;;6.13;;
793;SDS011;380;48.738;9.214;2023-04-16T15:03:41;9.73;;;7.05;;
793;SDS011;380;48.738;9.214;2023-04-16T15:06:07;8.52;;;7.32;;
793;SDS011;380;48.738;9.214;2023-04-16T15:08:34;10.60;;;8.18;;
793;SDS011;380;48.738;9.214;2023-04-16T15:11:00;11.13;;;8.35;;
793;SDS011;380;48.738;9.214;2023-04-16T15:13:26;10.52;;;7.63;;
793;SDS011;380;48.738;9.214;2023-04-16T15:15:57;11.90;;;8.70;;
793;SDS011;380;48.738;9.214;2023-04-16T15:18:24;12.77;;;9.15;;
793;SDS011;380;48.738;9.214;2023-04-16T15:20:50;11.95;;;8.35;;
793;SDS011;380;48.738;9.214;2023-04-16T15:23:18;11.82;;;8.55;;
793;SDS011;380;48.738;9.214;2023-04-16T15:25:44;12.07;;;9.50;;
793;SDS011;380;48.738;9.214;2023-04-16T15:28:10;10.32;;;8.65;;
793;SDS011;380;48.738;9.214;2023-04-16T15:30:37;10.98;;;8.25;;
793;SDS011;380;48.738;9.214;2023-04-16T15:33:04;11.07;;;9.02;;
793;SDS011;380;48.738;9.214;2023-04-16T15:35:30;11.35;;;8.75;;
793;SDS011;380;48.738;9.214;2023-04-16T15:37:56;12.45;;;9.93;;
793;SDS011;380;48.738;9.214;2023-04-16T15:40:23;12.18;;;9.15;;